Time;durP1;ratioP1;P1;durP2;ratioP2;P2;SDS_P1;SDS_P2;PMS_P1;PMS_P2;Temp;Humidity;BMP_temperature;BMP_pressure;BME280_temperature;BME280_humidity;BME280_pressure;Samples;Min_cycle;Max_cycle;Signal;HPM_P1;HPM_P2
2021/12/15 00:00:30;;;;;;;67.70;14.40;;;;;;;5.87;100.00;99299.31;4907004;29;20042;-56
2021/12/15 00:02:56;;;;;;;71.40;14.50;;;;;;;5.65;100.00;99301.03;4916388;29;20024;-56
2021/12/15 00:05:24;;;;;;;57.92;13.13;;;;;;;5.88;100.00;99301.03;4894035;28;20118;-56
2021/12/15 00:07:55;;;;;;;52.30;13.68;;;;;;;5.86;100.00;99294.13;4908761;29;20128;-56
2021/12/15 00:10:23;;;;;;;54.83;13.10;;;;;;;5.84;100.00;99291.53;4907466;28;20037;-56
2021/12/15 00:12:48;;;;;;;58.70;13.40;;;;;;;5.97;100.00;99290.69;4906700;29;20083;-56
2021/12/15 00:15:14;;;;;;;97.03;14.88;;;;;;;5.93;100.00;99288.06;4910489;29;20024;-57
2021/12/15 00:17:40;;;;;;;69.25;13.32;;;;;;;5.88;100.00;99287.22;4911239;29;20028;-56
2021/12/15 00:20:09;;;;;;;86.68;15.20;;;;;;;5.76;100.00;99288.09;4910667;29;20032;-56
2021/12/15 00:22:35;;;;;;;51.53;12.55;;;;;;;5.98;100.00;99282.06;4907974;29;20046;-56
2021/12/15 00:25:02;;;;;;;54.17;12.38;;;;;;;5.84;100.00;99283.75;4909656;29;20035;-56
2021/12/15 00:27:27;;;;;;;49.28;11.60;;;;;;;6.07;100.00;99282.91;4909341;29;20040;-55
2021/12/15 00:29:53;;;;;;;45.90;11.63;;;;;;;5.99;100.00;99280.31;4909562;29;20031;-55
2021/12/15 00:32:18;;;;;;;53.33;12.38;;;;;;;5.83;100.00;99287.22;4909153;28;20059;-57
2021/12/15 00:34:45;;;;;;;62.05;14.13;;;;;;;5.87;100.00;99291.53;4909767;29;20036;-55
2021/12/15 00:37:10;;;;;;;52.90;12.80;;;;;;;6.13;100.00;99293.25;4911983;29;20557;-55
2021/12/15 00:39:36;;;;;;;46.15;11.50;;;;;;;5.90;100.00;99285.47;4908566;29;20035;-56
2021/12/15 00:42:04;;;;;;;48.67;11.98;;;;;;;5.92;100.00;99279.44;4908928;28;20044;-56
2021/12/15 00:44:30;;;;;;;79.53;13.55;;;;;;;5.56;100.00;99281.19;4911420;29;20455;-54
2021/12/15 00:46:55;;;;;;;69.47;13.27;;;;;;;5.89;100.00;99283.75;4907011;28;20550;-54
2021/12/15 00:49:23;;;;;;;79.10;13.25;;;;;;;6.17;100.00;99274.22;4910641;29;20090;-55
2021/12/15 00:51:49;;;;;;;54.83;12.10;;;;;;;5.91;100.00;99275.13;4910337;28;20047;-56
2021/12/15 00:54:15;;;;;;;47.45;11.95;;;;;;;5.93;100.00;99272.53;4909747;29;20490;-56
2021/12/15 00:56:41;;;;;;;51.95;11.98;;;;;;;5.96;100.00;99270.84;4907425;28;20121;-57
2021/12/15 00:59:08;;;;;;;68.60;12.45;;;;;;;5.95;100.00;99275.97;4909017;29;20027;-56
2021/12/15 01:01:37;;;;;;;78.40;14.13;;;;;;;5.80;100.00;99279.47;4909401;28;20127;-55
2021/12/15 01:04:03;;;;;;;44.20;12.15;;;;;;;5.79;100.00;99282.94;4913581;29;20035;-56
2021/12/15 01:06:29;;;;;;;43.80;11.20;;;;;;;5.84;100.00;99273.41;4907275;29;20350;-55
2021/12/15 01:08:59;;;;;;;54.75;12.07;;;;;;;5.67;100.00;99275.16;4909944;29;20131;-54
2021/12/15 01:11:53;;;;;;;49.72;11.18;;;;;;;5.97;100.00;99282.03;4906287;29;20046;-55
2021/12/15 01:19:55;;;;;;;50.40;12.18;;;;;;;5.50;100.00;99278.63;4910531;29;20035;-56
2021/12/15 01:22:31;;;;;;;99.60;13.88;;;;;;;5.82;100.00;99284.63;4907454;29;20036;-56
2021/12/15 01:25:05;;;;;;;53.35;11.25;;;;;;;5.92;100.00;99278.59;4906849;29;20032;-56
2021/12/15 01:27:30;;;;;;;58.50;12.13;;;;;;;5.81;100.00;99276.03;4908603;29;20112;-56
2021/12/15 01:29:56;;;;;;;46.42;10.98;;;;;;;5.96;100.00;99270.84;4907779;29;20039;-57
2021/12/15 01:32:21;;;;;;;77.57;13.02;;;;;;;5.39;100.00;99282.94;4911067;29;20042;-56
2021/12/15 01:34:47;;;;;;;55.67;11.95;;;;;;;5.52;100.00;99291.56;4910283;29;20550;-56
2021/12/15 01:37:13;;;;;;;53.97;12.13;;;;;;;5.37;100.00;99285.50;4908564;28;20128;-58
2021/12/15 01:39:40;;;;;;;51.10;11.57;;;;;;;5.37;100.00;99287.25;4906595;29;20026;-57
2021/12/15 01:42:06;;;;;;;67.10;12.77;;;;;;;5.65;100.00;99287.25;4907869;29;20122;-57
2021/12/15 01:47:02;;;;;;;50.90;11.82;;;;;;;5.78;100.00;99289.81;4907714;28;20143;-56
2021/12/15 01:49:40;;;;;;;55.50;11.88;;;;;;;5.48;100.00;99293.28;4908172;29;20118;-55
2021/12/15 01:52:21;;;;;;;54.25;11.88;;;;;;;5.80;100.00;99301.03;4908240;29;20040;-56
2021/12/15 01:54:50;;;;;;;60.95;12.35;;;;;;;5.76;100.00;99303.63;4910112;29;20091;-57
2021/12/15 01:57:17;;;;;;;53.90;11.88;;;;;;;5.67;100.00;99308.81;4907320;29;20067;-56
2021/12/15 01:59:46;;;;;;;87.53;13.10;;;;;;;5.56;100.00;99304.50;4911965;29;20047;-57
2021/12/15 02:02:13;;;;;;;78.82;13.50;;;;;;;5.52;100.00;99310.53;4913196;29;20032;-56
2021/12/15 02:04:39;;;;;;;57.22;11.80;;;;;;;5.56;100.00;99316.56;4911444;29;20039;-57
2021/12/15 02:07:08;;;;;;;62.25;12.60;;;;;;;5.60;100.00;99301.03;4911685;29;20024;-56
2021/12/15 02:12:10;;;;;;;77.72;12.95;;;;;;;5.65;100.00;99295.00;4912134;28;20074;-57
2021/12/15 02:14:36;;;;;;;72.65;13.00;;;;;;;5.55;100.00;99295.03;4912246;29;20086;-57
2021/12/15 02:17:02;;;;;;;63.33;12.30;;;;;;;5.54;100.00;99292.41;4912833;29;20035;-59
2021/12/15 02:19:27;;;;;;;45.20;11.35;;;;;;;5.63;100.00;99284.66;4911793;29;20060;-57
2021/12/15 02:21:53;;;;;;;69.43;13.10;;;;;;;5.72;100.00;99287.25;4911927;28;20032;-56
2021/12/15 02:24:19;;;;;;;53.35;11.35;;;;;;;5.59;100.00;99281.19;4911738;29;20131;-56
2021/12/15 02:26:50;;;;;;;59.70;12.52;;;;;;;5.69;100.00;99282.06;4909238;29;20044;-57
2021/12/15 02:29:19;;;;;;;49.95;11.40;;;;;;;5.93;100.00;99286.34;4912469;29;20071;-58
2021/12/15 02:39:30;;;;;;;58.30;11.70;;;;;;;5.72;100.00;99291.56;4912058;29;20366;-57
2021/12/15 02:41:56;;;;;;;50.58;11.68;;;;;;;5.82;100.00;99287.22;4910021;29;20113;-57
2021/12/15 02:44:23;;;;;;;57.90;12.60;;;;;;;5.67;100.00;99288.97;4912609;29;20027;-58
2021/12/15 02:46:50;;;;;;;52.47;12.15;;;;;;;5.58;100.00;99288.97;4908311;29;20043;-56
2021/12/15 02:49:19;;;;;;;50.95;11.15;;;;;;;5.73;100.00;99293.28;4912164;29;20035;-56
2021/12/15 02:51:47;;;;;;;57.95;12.05;;;;;;;5.82;100.00;99297.59;4908224;29;20044;-57
2021/12/15 02:54:14;;;;;;;70.90;13.27;;;;;;;5.66;100.00;99299.31;4911416;29;20044;-56
2021/12/15 02:56:42;;;;;;;80.60;13.23;;;;;;;5.67;100.00;99293.28;4909440;29;20064;-58
2021/12/15 02:59:10;;;;;;;63.67;12.63;;;;;;;5.74;100.00;99293.28;4909288;28;20074;-56
2021/12/15 03:01:55;;;;;;;50.55;11.27;;;;;;;5.68;100.00;99295.88;4910726;29;20038;-57
2021/12/15 03:07:16;;;;;;;66.45;12.73;;;;;;;5.69;100.00;99296.72;4910158;29;20042;-58
2021/12/15 03:17:43;;;;;;;50.15;11.20;;;;;;;5.91;100.00;99303.59;4910748;29;20329;-57
2021/12/15 03:20:10;;;;;;;52.20;12.75;;;;;;;5.72;100.00;99307.09;4910569;29;20074;-57
2021/12/15 03:22:36;;;;;;;51.05;11.35;;;;;;;5.84;100.00;99307.06;4910647;29;20039;-56
2021/12/15 03:25:03;;;;;;;46.60;10.98;;;;;;;6.10;100.00;99298.44;4911674;29;20028;-58
2021/12/15 03:33:27;;;;;;;58.92;12.10;;;;;;;5.88;100.00;99308.81;4909032;29;20040;-56
2021/12/15 03:33:28;;;;;;;44.47;11.30;;;;;;;5.65;100.00;99307.97;4909475;28;20801;-56
2021/12/15 03:35:59;;;;;;;46.10;11.80;;;;;;;5.98;100.00;99309.69;4909913;29;20032;-58
2021/12/15 03:38:26;;;;;;;63.35;12.27;;;;;;;5.97;100.00;99307.94;4912291;29;20026;-56
2021/12/15 03:40:51;;;;;;;61.10;12.85;;;;;;;5.83;100.00;99309.69;4908988;29;20040;-56
2021/12/15 03:43:17;;;;;;;63.22;12.55;;;;;;;5.71;100.00;99310.53;4911390;29;20054;-57
2021/12/15 03:45:50;;;;;;;57.35;12.00;;;;;;;5.68;100.00;99307.94;4896668;29;20518;-58
2021/12/15 03:48:20;;;;;;;57.70;12.65;;;;;;;5.83;100.00;99302.78;4908619;29;20548;-57
2021/12/15 03:50:46;;;;;;;61.78;12.07;;;;;;;5.71;100.00;99311.38;4908529;28;20578;-57
2021/12/15 03:53:14;;;;;;;49.03;11.93;;;;;;;5.70;100.00;99312.28;4910490;29;20542;-56
2021/12/15 03:55:41;;;;;;;63.50;12.45;;;;;;;5.62;100.00;99313.13;4911278;29;20379;-57
2021/12/15 03:58:11;;;;;;;65.53;13.18;;;;;;;5.64;100.00;99316.56;4907645;29;20739;-57
2021/12/15 04:00:46;;;;;;;68.45;12.07;;;;;;;5.86;100.00;99314.84;4909662;28;20126;-58
2021/12/15 04:03:27;;;;;;;41.42;10.50;;;;;;;5.83;100.00;99310.53;4909535;29;20031;-56
2021/12/15 04:05:58;;;;;;;51.03;11.25;;;;;;;5.73;100.00;99316.56;4907952;29;20139;-57
2021/12/15 04:08:24;;;;;;;53.95;11.70;;;;;;;5.75;100.00;99307.97;4909822;29;20083;-56
2021/12/15 04:10:49;;;;;;;62.30;11.70;;;;;;;5.94;100.00;99316.56;4909222;29;20040;-58
2021/12/15 04:13:16;;;;;;;51.55;11.20;;;;;;;6.15;100.00;99312.25;4908951;29;20679;-57
2021/12/15 04:15:47;;;;;;;71.18;12.75;;;;;;;6.20;100.00;99307.06;4909902;28;20044;-56
2021/12/15 04:18:14;;;;;;;43.65;10.93;;;;;;;5.77;100.00;99310.53;4911238;29;20032;-58
2021/12/15 04:20:40;;;;;;;51.95;11.90;;;;;;;5.88;100.00;99319.16;4905552;29;20127;-56
2021/12/15 04:23:08;;;;;;;50.58;11.43;;;;;;;6.13;100.00;99324.34;4909883;29;20066;-56
2021/12/15 04:25:36;;;;;;;53.53;11.75;;;;;;;5.91;100.00;99324.31;4910226;29;20690;-56
2021/12/15 04:28:08;;;;;;;46.42;10.35;;;;;;;5.80;100.00;99326.06;4909043;29;20036;-56
2021/12/15 04:30:38;;;;;;;45.53;11.00;;;;;;;5.88;100.00;99329.53;4910412;29;20381;-56
2021/12/15 04:33:12;;;;;;;37.72;10.20;;;;;;;5.88;100.00;99328.63;4908976;29;20023;-57
2021/12/15 04:35:38;;;;;;;48.65;11.25;;;;;;;5.94;100.00;99324.34;4909385;29;20124;-56
2021/12/15 04:38:04;;;;;;;41.20;10.82;;;;;;;5.58;100.00;99333.81;4910852;29;20032;-56
2021/12/15 04:40:29;;;;;;;39.72;11.23;;;;;;;5.67;100.00;99345.06;4906764;29;20069;-57
2021/12/15 04:42:55;;;;;;;48.83;12.35;;;;;;;5.72;100.00;99344.19;4910292;29;20043;-57
2021/12/15 04:45:22;;;;;;;47.63;11.30;;;;;;;5.74;100.00;99342.47;4910935;29;20061;-56
2021/12/15 04:47:52;;;;;;;47.05;11.57;;;;;;;5.78;100.00;99343.34;4908426;29;20058;-56
2021/12/15 04:50:24;;;;;;;51.53;12.57;;;;;;;6.10;100.00;99347.66;4908862;29;20024;-56
2021/12/15 04:52:50;;;;;;;44.17;11.30;;;;;;;6.17;100.00;99351.97;4908880;29;20032;-56
2021/12/15 04:55:15;;;;;;;51.78;13.35;;;;;;;5.96;100.00;99353.72;4908834;28;20126;-56
2021/12/15 04:57:41;;;;;;;42.38;11.52;;;;;;;6.00;100.00;99356.31;4907789;29;20904;-56
2021/12/15 05:00:13;;;;;;;43.10;11.95;;;;;;;6.03;100.00;99353.69;4907791;29;20107;-56
2021/12/15 05:02:39;;;;;;;43.30;11.73;;;;;;;5.93;100.00;99363.19;4907367;29;20039;-57
2021/12/15 05:05:06;;;;;;;42.85;11.02;;;;;;;6.00;100.00;99369.25;4913483;29;20031;-58
2021/12/15 05:07:31;;;;;;;60.20;12.60;;;;;;;6.19;100.00;99370.94;4907997;29;20110;-56
2021/12/15 05:09:59;;;;;;;49.63;12.00;;;;;;;6.10;100.00;99376.16;4908652;29;20128;-57
2021/12/15 05:12:24;;;;;;;36.75;11.57;;;;;;;6.19;100.00;99376.13;4917261;29;20128;-57
2021/12/15 05:14:49;;;;;;;50.10;12.48;;;;;;;6.10;100.00;99377.03;4910549;29;20111;-56
2021/12/15 05:17:15;;;;;;;54.50;12.32;;;;;;;5.84;100.00;99376.97;4910975;29;20070;-57
2021/12/15 05:19:43;;;;;;;45.88;11.60;;;;;;;5.83;100.00;99375.28;4910914;29;20525;-56
2021/12/15 05:22:09;;;;;;;43.92;11.52;;;;;;;5.98;100.00;99379.63;4908799;29;20040;-57
2021/12/15 05:24:35;;;;;;;53.88;12.32;;;;;;;6.04;100.00;99378.75;4907879;29;20839;-57
2021/12/15 05:27:05;;;;;;;47.08;11.55;;;;;;;6.06;100.00;99379.59;4908147;29;20445;-57
2021/12/15 05:29:32;;;;;;;47.10;11.75;;;;;;;6.06;100.00;99383.06;4909576;29;20436;-56
2021/12/15 05:31:58;;;;;;;41.22;11.18;;;;;;;6.15;100.00;99385.63;4909181;28;20036;-57
2021/12/15 05:34:25;;;;;;;44.17;11.90;;;;;;;6.02;100.00;99389.09;4907706;29;20036;-57
2021/12/15 05:36:52;;;;;;;44.10;11.45;;;;;;;6.15;100.00;99390.81;4908977;29;20059;-56
2021/12/15 05:39:18;;;;;;;51.38;12.40;;;;;;;6.10;100.00;99391.69;4910148;29;20517;-56
2021/12/15 05:41:43;;;;;;;50.65;12.63;;;;;;;5.93;100.00;99395.09;4908331;29;20131;-56
2021/12/15 05:44:09;;;;;;;39.28;11.45;;;;;;;6.06;100.00;99400.34;4910251;29;20115;-57
2021/12/15 05:46:35;;;;;;;44.92;12.20;;;;;;;6.18;100.00;99401.19;4908748;29;20083;-56
2021/12/15 05:49:01;;;;;;;52.35;12.50;;;;;;;6.15;100.00;99400.31;4907540;29;20044;-57
2021/12/15 05:51:26;;;;;;;66.20;14.57;;;;;;;6.16;100.00;99402.91;4905939;29;20065;-58
2021/12/15 05:53:52;;;;;;;55.55;12.40;;;;;;;6.25;100.00;99407.25;4909162;29;20349;-57
2021/12/15 05:56:18;;;;;;;58.67;13.65;;;;;;;6.16;100.00;99407.25;4910320;29;20055;-56
2021/12/15 05:58:45;;;;;;;48.33;12.10;;;;;;;6.16;100.00;99412.44;4910829;29;20040;-56
2021/12/15 06:01:11;;;;;;;55.35;12.88;;;;;;;6.15;100.00;99421.06;4907833;29;20025;-56
2021/12/15 06:03:37;;;;;;;52.33;12.90;;;;;;;6.27;100.00;99415.03;4907255;29;20031;-56
2021/12/15 06:06:03;;;;;;;56.08;13.05;;;;;;;6.16;100.00;99420.19;4910661;29;20106;-56
2021/12/15 06:08:28;;;;;;;59.83;12.90;;;;;;;5.93;100.00;99415.84;4911939;29;20024;-55
2021/12/15 06:10:53;;;;;;;56.38;12.80;;;;;;;5.94;100.00;99422.75;4911278;28;20043;-57
2021/12/15 06:13:22;;;;;;;62.70;13.27;;;;;;;6.23;100.00;99414.16;4909038;29;20032;-58
2021/12/15 06:15:49;;;;;;;54.85;11.68;;;;;;;6.10;100.00;99415.88;4910808;28;20123;-56
2021/12/15 06:18:17;;;;;;;65.75;12.98;;;;;;;6.22;100.00;99421.94;4907549;29;20023;-57
2021/12/15 06:20:46;;;;;;;49.88;12.80;;;;;;;5.96;100.00;99426.22;4908011;29;20051;-56
2021/12/15 06:23:17;;;;;;;44.25;12.50;;;;;;;5.98;100.00;99419.31;4912237;29;20604;-56
2021/12/15 06:25:45;;;;;;;53.23;11.77;;;;;;;6.09;100.00;99416.75;4912818;29;20067;-56
2021/12/15 06:28:11;;;;;;;75.10;13.60;;;;;;;5.92;100.00;99424.47;4910914;29;20395;-56
2021/12/15 06:30:50;;;;;;;63.72;12.68;;;;;;;6.16;100.00;99412.44;5076748;27;20398;-56
2021/12/15 06:33:16;;;;;;;64.30;12.98;;;;;;;6.28;100.00;99421.91;5063505;28;20494;-57
2021/12/15 06:35:52;;;;;;;43.95;9.40;;;;;;;6.27;100.00;99427.97;5062832;28;20048;-56
2021/12/15 06:38:18;;;;;;;72.72;13.82;;;;;;;6.15;100.00;99426.22;5064086;28;20027;-57
2021/12/15 06:40:43;;;;;;;52.63;11.13;;;;;;;6.19;100.00;99427.94;5065069;28;20040;-57
2021/12/15 06:43:09;;;;;;;56.10;12.30;;;;;;;6.41;100.00;99425.34;5065420;28;20029;-57
2021/12/15 06:45:45;;;;;;;52.92;11.98;;;;;;;6.27;100.00;99428.81;5062383;28;20052;-58
2021/12/15 06:59:07;;;;;;;58.30;12.80;;;;;;;6.17;100.00;99446.09;5063166;28;20047;-55
2021/12/15 07:01:32;;;;;;;79.00;14.30;;;;;;;6.43;100.00;99444.34;5062883;28;20037;-55
2021/12/15 07:03:58;;;;;;;57.95;13.00;;;;;;;6.51;100.00;99453.84;5048244;28;20639;-56
2021/12/15 07:06:24;;;;;;;65.72;12.90;;;;;;;6.45;100.00;99445.22;5061876;28;20052;-56
2021/12/15 07:08:50;;;;;;;75.75;14.07;;;;;;;6.18;100.00;99446.97;5063578;28;20024;-56
2021/12/15 07:11:16;;;;;;;69.53;12.23;;;;;;;6.49;100.00;99452.16;5062093;28;20041;-56
2021/12/15 07:13:41;;;;;;;67.00;12.40;;;;;;;6.54;100.00;99455.56;5063664;28;20029;-56
2021/12/15 07:16:09;;;;;;;61.00;12.05;;;;;;;6.74;100.00;99458.97;5062312;28;20083;-57
2021/12/15 07:19:05;;;;;;;65.90;13.50;;;;;;;6.40;100.00;99455.59;5043032;28;20040;-55
2021/12/15 07:21:35;;;;;;;69.80;12.77;;;;;;;6.18;100.00;99471.16;5062333;28;20123;-56
2021/12/15 07:24:00;;;;;;;68.75;12.35;;;;;;;6.55;100.00;99465.09;5062126;28;20399;-57
2021/12/15 07:26:26;;;;;;;99.22;15.75;;;;;;;6.47;100.00;99470.28;5061049;28;20044;-56
2021/12/15 07:28:51;;;;;;;65.57;12.02;;;;;;;6.44;100.00;99474.59;5063309;28;20399;-56
2021/12/15 07:31:17;;;;;;;85.63;14.43;;;;;;;6.47;100.00;99480.66;5061794;28;20044;-56
2021/12/15 07:33:43;;;;;;;80.72;14.30;;;;;;;6.34;100.00;99482.38;5062537;28;20099;-56
2021/12/15 07:36:08;;;;;;;80.43;13.68;;;;;;;6.52;100.00;99481.50;5061184;28;20044;-56
2021/12/15 07:38:41;;;;;;;73.82;13.18;;;;;;;6.64;100.00;99479.78;5064196;28;20120;-57
2021/12/15 07:41:09;;;;;;;78.00;12.43;;;;;;;6.56;100.00;99483.25;5054244;28;20040;-56
2021/12/15 07:43:35;;;;;;;87.80;13.05;;;;;;;6.28;100.00;99487.56;5048596;28;20116;-56
2021/12/15 07:46:05;;;;;;;80.22;13.20;;;;;;;6.23;100.00;99491.88;5046983;28;20120;-58
2021/12/15 07:48:36;;;;;;;65.03;13.25;;;;;;;6.57;100.00;99492.72;5053278;28;20052;-56
2021/12/15 07:51:04;;;;;;;83.95;13.00;;;;;;;6.63;100.00;99499.63;5048222;28;20716;-57
2021/12/15 07:53:29;;;;;;;80.50;13.75;;;;;;;6.63;100.00;99497.03;5048569;28;20068;-57
2021/12/15 07:55:56;;;;;;;87.00;13.70;;;;;;;6.38;100.00;99501.41;5049414;28;20056;-57
2021/12/15 07:58:25;;;;;;;70.07;12.02;;;;;;;6.44;100.00;99503.13;5049382;28;20379;-56
2021/12/15 08:00:53;;;;;;;54.65;10.35;;;;;;;7.06;100.00;99512.53;5050332;28;20044;-57
2021/12/15 08:03:19;;;;;;;71.20;12.90;;;;;;;6.81;100.00;99511.72;5048002;28;20154;-56
2021/12/15 08:05:47;;;;;;;89.65;14.38;;;;;;;7.08;100.00;99516.00;5049848;28;20036;-56
2021/12/15 08:08:14;;;;;;;86.85;14.75;;;;;;;6.77;100.00;99514.34;5050059;28;20021;-56
2021/12/15 08:10:41;;;;;;;70.43;13.85;;;;;;;6.89;100.00;99509.09;5047639;28;20529;-55
2021/12/15 08:13:08;;;;;;;63.50;13.25;;;;;;;6.85;100.00;99504.78;5049340;28;20024;-57
2021/12/15 08:15:33;;;;;;;63.78;13.95;;;;;;;6.79;100.00;99507.41;5029910;28;20044;-56
2021/12/15 08:17:59;;;;;;;78.47;15.10;;;;;;;6.74;100.00;99510.84;5048756;28;20033;-57
2021/12/15 08:20:28;;;;;;;74.93;15.15;;;;;;;6.97;100.00;99507.38;5048311;28;20024;-57
2021/12/15 08:22:53;;;;;;;80.05;14.27;;;;;;;6.90;100.00;99510.84;5049444;28;20086;-56
2021/12/15 08:25:20;;;;;;;47.10;11.43;;;;;;;6.99;100.00;99523.78;5047244;28;20051;-55
2021/12/15 08:27:47;;;;;;;68.75;14.30;;;;;;;6.89;100.00;99519.47;5050677;28;20021;-57
2021/12/15 08:30:20;;;;;;;69.65;14.63;;;;;;;6.78;100.00;99503.94;5047933;28;20090;-56
2021/12/15 08:32:49;;;;;;;63.20;13.98;;;;;;;7.16;100.00;99515.09;5048065;28;20572;-57
2021/12/15 08:35:18;;;;;;;71.03;15.07;;;;;;;6.95;100.00;99522.09;5043772;28;20412;-56
2021/12/15 08:37:45;;;;;;;70.32;14.57;;;;;;;7.04;100.00;99519.47;5049194;28;20031;-56
2021/12/15 08:40:11;;;;;;;55.40;12.05;;;;;;;6.78;100.00;99526.41;5046732;28;20079;-56
2021/12/15 08:42:37;;;;;;;53.92;13.63;;;;;;;7.04;100.00;99516.88;5048834;28;20050;-56
2021/12/15 08:45:04;;;;;;;61.60;14.13;;;;;;;6.95;100.00;99519.50;5047676;28;20033;-56
2021/12/15 08:47:30;;;;;;;58.92;13.85;;;;;;;6.50;100.00;99526.44;5046617;28;20028;-56
2021/12/15 08:49:55;;;;;;;55.03;12.85;;;;;;;6.63;100.00;99522.13;5046999;28;20037;-56
2021/12/15 08:52:21;;;;;;;54.22;12.98;;;;;;;6.98;100.00;99518.59;5045906;28;20486;-57
2021/12/15 08:54:47;;;;;;;61.53;13.70;;;;;;;7.22;100.00;99517.69;5048504;28;20875;-56
2021/12/15 08:57:13;;;;;;;56.67;13.43;;;;;;;7.21;100.00;99526.34;5047764;28;20131;-56
2021/12/15 08:59:38;;;;;;;49.30;12.07;;;;;;;7.13;100.00;99527.22;5045967;28;20023;-56
2021/12/15 09:02:04;;;;;;;56.13;13.63;;;;;;;7.04;100.00;99519.47;5048370;28;20091;-56
2021/12/15 09:04:30;;;;;;;54.42;13.50;;;;;;;6.94;100.00;99528.97;5044826;28;20033;-56
2021/12/15 09:06:55;;;;;;;64.60;14.43;;;;;;;6.76;100.00;99529.00;5048127;28;20409;-59
2021/12/15 09:09:21;;;;;;;59.88;14.18;;;;;;;6.66;100.00;99522.97;5048003;28;20111;-57
2021/12/15 09:11:49;;;;;;;61.80;14.18;;;;;;;7.00;100.00;99538.47;5053842;28;20120;-55
2021/12/15 09:14:15;;;;;;;56.33;13.43;;;;;;;7.02;100.00;99530.69;5042855;28;20376;-56
2021/12/15 09:16:44;;;;;;;62.47;14.45;;;;;;;7.13;100.00;99526.34;5049304;28;20040;-56
2021/12/15 09:19:09;;;;;;;49.53;13.10;;;;;;;7.27;100.00;99531.50;5048382;28;20026;-56
2021/12/15 09:21:36;;;;;;;43.65;11.93;;;;;;;7.25;100.00;99528.06;5046518;28;20037;-56
2021/12/15 09:24:05;;;;;;;45.65;13.15;;;;;;;7.52;100.00;99522.75;5044234;28;20098;-58
2021/12/15 09:26:31;;;;;;;43.60;11.95;;;;;;;7.04;100.00;99524.66;5054001;28;20518;-56
2021/12/15 09:28:57;;;;;;;42.35;12.88;;;;;;;7.05;100.00;99516.00;5047523;28;20037;-56
2021/12/15 09:31:23;;;;;;;38.13;12.13;;;;;;;7.30;100.00;99521.97;5047392;28;20095;-56
2021/12/15 09:33:50;;;;;;;43.53;12.63;;;;;;;7.57;100.00;99524.47;5047921;28;20476;-56
2021/12/15 09:36:18;;;;;;;48.53;13.15;;;;;;;7.24;100.00;99524.59;5047939;28;20052;-56
2021/12/15 09:38:46;;;;;;;39.00;11.93;;;;;;;7.90;100.00;99523.44;5046629;28;20032;-56
2021/12/15 09:41:16;;;;;;;36.85;11.85;;;;;;;7.88;100.00;99519.97;5047604;28;20064;-55
2021/12/15 09:43:43;;;;;;;40.30;12.63;;;;;;;8.00;100.00;99525.13;5046717;28;20524;-55
2021/12/15 09:46:17;;;;;;;39.40;12.35;;;;;;;7.94;100.00;99529.47;5048538;28;20097;-57
2021/12/15 10:02:34;;;;;;;37.47;11.63;;;;;;;8.92;100.00;99533.97;5046766;28;20074;-57
2021/12/15 10:18:53;;;;;;;45.58;13.80;;;;;;;8.49;100.00;99508.31;5047219;28;20514;-56
2021/12/15 10:21:34;;;;;;;48.28;13.48;;;;;;;8.62;100.00;99509.94;5045704;28;20042;-56
2021/12/15 10:24:00;;;;;;;44.38;13.82;;;;;;;8.12;100.00;99508.56;5046575;28;20047;-55
2021/12/15 10:26:26;;;;;;;50.22;14.55;;;;;;;7.85;100.00;99505.28;5046444;28;20808;-55
2021/12/15 10:28:52;;;;;;;48.30;14.82;;;;;;;8.28;100.00;99498.94;5045001;28;20041;-56
2021/12/15 10:31:21;;;;;;;53.58;14.20;;;;;;;8.04;100.00;99489.56;5046801;28;20044;-56
2021/12/15 10:33:56;;;;;;;43.88;13.27;;;;;;;7.60;100.00;99501.09;5046882;28;20104;-56
2021/12/15 10:36:30;;;;;;;41.33;13.15;;;;;;;7.99;100.00;99501.72;5046914;28;20037;-57
2021/12/15 10:38:59;;;;;;;47.45;13.77;;;;;;;8.44;100.00;99494.50;5045468;28;20021;-55
2021/12/15 10:41:38;;;;;;;44.50;12.88;;;;;;;8.58;100.00;99492.63;5044579;28;20066;-56
2021/12/15 10:44:09;;;;;;;32.60;11.60;;;;;;;8.55;100.00;99486.63;5046670;28;20029;-56
2021/12/15 10:46:37;;;;;;;27.00;10.35;;;;;;;8.80;100.00;99495.03;5044626;28;20044;-56
2021/12/15 10:49:12;;;;;;;34.03;12.45;;;;;;;8.66;100.00;99483.03;5047574;28;20544;-57
2021/12/15 10:51:48;;;;;;;29.15;11.00;;;;;;;9.00;100.00;99490.47;5047555;28;20048;-57
2021/12/15 10:54:24;;;;;;;34.75;11.75;;;;;;;9.27;100.00;99481.50;5047309;28;20039;-57
2021/12/15 10:56:58;;;;;;;35.30;13.63;;;;;;;8.90;100.00;99483.66;5045975;28;20041;-56
2021/12/15 10:59:27;;;;;;;30.38;12.40;;;;;;;9.19;100.00;99485.06;5047732;28;20111;-59
2021/12/15 11:02:09;;;;;;;26.02;10.68;;;;;;;9.53;100.00;99484.66;5047647;28;20037;-56
2021/12/15 11:04:54;;;;;;;18.50;8.73;;;;;;;9.47;100.00;99479.56;5047612;28;20032;-57
2021/12/15 11:07:29;;;;;;;24.85;9.70;;;;;;;9.71;100.00;99474.00;5043899;28;20048;-55
2021/12/15 11:10:27;;;;;;;29.27;11.50;;;;;;;9.13;100.00;99485.16;5050143;28;20530;-56
2021/12/15 11:12:58;;;;;;;17.27;8.05;;;;;;;9.93;100.00;99478.91;5047968;28;20063;-56
2021/12/15 11:15:31;;;;;;;13.88;7.47;;;;;;;9.87;100.00;99485.06;5045441;28;20541;-55
2021/12/15 11:18:01;;;;;;;18.92;9.10;;;;;;;9.92;100.00;99483.25;5052065;28;20025;-57
2021/12/15 11:20:35;;;;;;;21.05;9.48;;;;;;;9.69;100.00;99486.19;5048952;28;20047;-55
2021/12/15 11:23:13;;;;;;;17.70;8.43;;;;;;;9.98;100.00;99483.16;5051215;28;20025;-57
2021/12/15 11:25:42;;;;;;;15.88;7.60;;;;;;;10.08;100.00;99477.81;5047795;28;20027;-58
2021/12/15 11:28:32;;;;;;;17.40;8.30;;;;;;;10.32;100.00;99471.38;5050607;28;20028;-57
2021/12/15 11:31:15;;;;;;;22.65;9.75;;;;;;;9.79;100.00;99477.34;5050591;28;20645;-57
2021/12/15 11:33:46;;;;;;;22.27;9.70;;;;;;;9.54;100.00;99475.97;5048168;28;20128;-56
2021/12/15 11:36:25;;;;;;;21.08;9.35;;;;;;;9.13;100.00;99472.13;5046934;28;20094;-56
2021/12/15 11:38:57;;;;;;;15.90;7.68;;;;;;;10.23;100.00;99465.38;5050088;28;20670;-56
2021/12/15 11:41:27;;;;;;;20.10;9.57;;;;;;;9.68;100.00;99474.03;5048766;28;20041;-55
2021/12/15 11:44:12;;;;;;;18.98;9.13;;;;;;;9.67;100.00;99472.31;5051204;28;20098;-56
2021/12/15 11:46:46;;;;;;;19.58;9.43;;;;;;;9.69;100.00;99467.94;5047387;28;20041;-56
2021/12/15 11:49:13;;;;;;;14.75;7.82;;;;;;;9.84;100.00;99465.13;5061224;28;20479;-57
2021/12/15 11:51:44;;;;;;;23.20;9.63;;;;;;;9.23;100.00;99469.41;5046831;28;20716;-55
2021/12/15 11:54:12;;;;;;;19.17;9.52;;;;;;;9.66;100.00;99465.38;5056465;28;20544;-56
2021/12/15 11:56:38;;;;;;;16.02;8.50;;;;;;;9.57;100.00;99470.72;5047361;28;20064;-56
2021/12/15 11:59:29;;;;;;;17.40;8.25;;;;;;;9.62;100.00;99463.69;5047326;28;20564;-56
2021/12/15 12:01:59;;;;;;;24.42;11.50;;;;;;;9.41;100.00;99464.84;5051090;28;20292;-56
2021/12/15 12:04:40;;;;;;;18.58;8.68;;;;;;;9.61;100.00;99457.63;5047905;28;20375;-57
2021/12/15 12:07:26;;;;;;;23.63;10.27;;;;;;;9.22;100.00;99469.41;5049796;28;20036;-58
2021/12/15 12:09:55;;;;;;;25.63;10.32;;;;;;;9.26;100.00;99466.78;5049441;28;20752;-57
2021/12/15 12:12:24;;;;;;;20.52;9.40;;;;;;;9.47;100.00;99458.72;5047003;28;20674;-57
2021/12/15 12:14:50;;;;;;;26.30;10.90;;;;;;;9.45;100.00;99462.19;5048185;28;20028;-57
2021/12/15 12:17:33;;;;;;;17.00;8.52;;;;;;;9.66;100.00;99460.16;5050126;28;20067;-55
2021/12/15 12:20:24;;;;;;;19.15;9.13;;;;;;;9.63;100.00;99463.69;5050033;28;20056;-55
2021/12/15 12:22:51;;;;;;;21.67;9.93;;;;;;;9.85;100.00;99460.75;5023602;28;20078;-55
2021/12/15 12:25:21;;;;;;;19.30;8.63;;;;;;;9.70;100.00;99461.84;5026806;28;20108;-56
2021/12/15 12:27:47;;;;;;;23.17;9.52;;;;;;;9.62;100.00;99471.53;5028474;28;20037;-55
2021/12/15 12:30:20;;;;;;;19.52;9.30;;;;;;;9.71;100.00;99471.38;5026467;28;20498;-57
2021/12/15 12:32:47;;;;;;;16.88;8.77;;;;;;;9.53;100.00;99463.81;5027112;28;20132;-56
2021/12/15 12:35:17;;;;;;;13.93;7.63;;;;;;;9.57;100.00;99465.50;5027308;28;20032;-55